Huvudsida
METAR-TAF:

METAR-TAF

Flygplatser :

Al Ain International Airport

Al Ain, Förenade Arabemiraten

latitud: 24-16N, longitud: 055-36E, höjd: 265 m

Aktuellt väderrapport

Denna rapport gjordes för 1 timme och 2 minuter sedan, klockan 06:00 UTC
Vind 10 kt från syd
Temperatur 23°C
Fuktighet 69%
Tryck 1021 hPa
Sikt 10 km eller mer
Inga moln under 1 500 m eller inga cumulonimbus

METAR: OMAL 220600Z 17010KT CAVOK 23/17 Q1021 NOSIG

Tid: 11:02 (07:02 UTC)

Väderprognos

Denna rapport gjordes för 2 timmar och 2 minuter sedan, klockan 05:00 UTC
Prognos gäller från 22 kl. 06 UTC till 23 kl. 12 UTC
Vind 10 kt från syd/sydost
Sikt: 8000 m
Blir
från 22 kl. 12 UTC till 22 kl. 14 UTC
Vind 7 kt från nord
Blir
från 23 kl. 03 UTC till 23 kl. 05 UTC
Vind 12 kt från syd
Blir
från 23 kl. 10 UTC till 23 kl. 12 UTC
Vind 8 kt från väst/nordväst

TAF: OMAL 220500Z 2206/2312 15010KT 8000 NSC BECMG 2212/2214 36007KT BECMG 2303/2305 17012KT BECMG 2310/2312 29008KT

Aktuella väderrapporter och prognoser från 4000 flygplatser (METAR- och TAF-rapporter).

De tillgängliga stationerna syns som gula och röda prickar på kartan.

För musen över prickarna för att se namnen på stationerna.

Klicka sedan för att få väderrapporter och prognoser.

För att ändra kartan: Klicka på de gröna knapparna med ett svart kors på för att zooma in; den gröna knappen med ett streck på för att zooma ut; eller på de gröna pilarna för angränsande kartor.


METAR-TAF: